createdAt,value
2022-10-11T00:02:22.207Z,101029.59
2022-10-11T00:05:25.113Z,101025.41
2022-10-11T00:08:27.707Z,101033.25
2022-10-11T00:11:30.821Z,101024.53
2022-10-11T00:14:34.067Z,101025.59
2022-10-11T00:17:36.952Z,101019.50
2022-10-11T00:20:39.375Z,101022.09
2022-10-11T00:23:42.570Z,101030.16
2022-10-11T00:26:47.001Z,101016.75
2022-10-11T00:29:50.014Z,101012.72
2022-10-11T00:32:52.568Z,101006.03
2022-10-11T00:35:55.261Z,101014.19
2022-10-11T00:38:57.863Z,101005.84
2022-10-11T00:42:00.720Z,101012.91
2022-10-11T00:45:28.136Z,101010.50
2022-10-11T00:48:30.810Z,101009.91
2022-10-11T00:51:39.125Z,101012.72
2022-10-11T00:54:44.517Z,101004.16
2022-10-11T00:57:49.748Z,101012.03
2022-10-11T01:00:54.175Z,101003.34
2022-10-11T01:03:57.455Z,100993.03
2022-10-11T01:07:01.579Z,100995.69
2022-10-11T01:10:04.296Z,100997.62
2022-10-11T01:13:46.315Z,101000.44
2022-10-11T01:17:00.148Z,101003.09
2022-10-11T01:20:24.045Z,101000.44
2022-10-11T01:24:17.783Z,100997.16
2022-10-11T01:27:46.440Z,101000.94
2022-10-11T01:30:51.086Z,100996.50
2022-10-11T01:34:06.356Z,100999.25
2022-10-11T01:37:36.925Z,100989.81
2022-10-11T01:40:49.041Z,100989.97
2022-10-11T01:43:59.607Z,100990.97
2022-10-11T01:47:02.316Z,100984.06
2022-10-11T01:50:06.015Z,100986.81
2022-10-11T01:53:30.983Z,100989.44
2022-10-11T01:56:51.982Z,100983.31
2022-10-11T02:00:07.601Z,100980.91
2022-10-11T02:03:18.791Z,100981.00
2022-10-11T02:06:35.823Z,100985.38
2022-10-11T02:10:13.881Z,100983.69
2022-10-11T02:13:23.999Z,100984.47
2022-10-11T02:16:32.394Z,100992.34
2022-10-11T02:19:38.617Z,100981.28
2022-10-11T02:22:45.538Z,100984.72
2022-10-11T02:25:49.181Z,100983.91
2022-10-11T02:28:56.562Z,100979.66
2022-10-11T02:32:00.617Z,100982.19
2022-10-11T02:35:03.585Z,100991.50
2022-10-11T02:38:19.155Z,100989.94
2022-10-11T02:41:23.678Z,100984.06
2022-10-11T02:44:35.870Z,100987.53
2022-10-11T02:47:39.769Z,100986.75
2022-10-11T02:50:43.358Z,100987.72
2022-10-11T02:53:45.926Z,100995.31
2022-10-11T02:56:48.641Z,100991.75
2022-10-11T02:59:51.119Z,100995.09
2022-10-11T03:02:53.843Z,100996.53
2022-10-11T03:06:01.185Z,100991.19
2022-10-11T03:09:04.639Z,100994.41
2022-10-11T03:12:07.335Z,100996.81
2022-10-11T03:15:10.531Z,100999.31
2022-10-11T03:18:12.934Z,100994.09
2022-10-11T03:21:15.745Z,100985.56
2022-10-11T03:24:18.153Z,100984.81
2022-10-11T03:27:20.954Z,100989.25
2022-10-11T03:30:23.368Z,100999.81
2022-10-11T03:33:26.109Z,100992.34
2022-10-11T03:36:28.592Z,101006.34
2022-10-11T03:39:31.293Z,101005.63
2022-10-11T03:42:34.128Z,101002.91
2022-10-11T03:45:36.878Z,101007.94
2022-10-11T03:48:39.436Z,101003.44
2022-10-11T03:51:42.316Z,101011.06
2022-10-11T03:54:44.742Z,101015.19
2022-10-11T03:57:47.476Z,101015.66
2022-10-11T04:00:50.363Z,101015.09
2022-10-11T04:03:56.434Z,101012.22
2022-10-11T04:06:58.867Z,101011.06
2022-10-11T04:10:01.621Z,101015.91
2022-10-11T04:13:04.128Z,101024.13
2022-10-11T04:16:07.533Z,101019.72
2022-10-11T04:19:10.369Z,101023.31
2022-10-11T04:22:13.285Z,101015.41
2022-10-11T04:25:15.858Z,101021.41
2022-10-11T04:28:18.797Z,101022.19
2022-10-11T04:31:21.268Z,101029.00
2022-10-11T04:34:24.285Z,101024.63
2022-10-11T04:37:26.738Z,101015.53
2022-10-11T04:40:29.593Z,101020.50
2022-10-11T04:43:32.039Z,101015.56
2022-10-11T04:46:34.925Z,101007.03
2022-10-11T04:49:37.504Z,101011.06
2022-10-11T04:52:40.217Z,101016.31
2022-10-11T04:55:42.691Z,101017.16
2022-10-11T04:58:48.166Z,101009.41
2022-10-11T05:01:50.915Z,101009.41
2022-10-11T05:04:53.727Z,101012.59
2022-10-11T05:07:56.166Z,101014.19
2022-10-11T05:11:04.379Z,101017.47
2022-10-11T05:14:06.881Z,101014.94
2022-10-11T05:17:09.636Z,101013.72
2022-10-11T05:20:12.901Z,101017.25
2022-10-11T05:23:15.890Z,101017.16
2022-10-11T05:26:20.223Z,101029.09
2022-10-11T05:29:23.057Z,101025.53
2022-10-11T05:32:27.822Z,101026.22
2022-10-11T05:35:30.894Z,101025.84
2022-10-11T05:38:33.349Z,101029.66
2022-10-11T05:41:36.111Z,101032.56
2022-10-11T05:44:38.563Z,101044.16
2022-10-11T05:47:41.237Z,101050.87
2022-10-11T05:50:43.802Z,101054.63
2022-10-11T05:53:46.946Z,101049.75
2022-10-11T05:56:49.397Z,101062.19
2022-10-11T05:59:52.254Z,101058.69
2022-10-11T06:02:54.660Z,101058.84
2022-10-11T06:05:57.530Z,101064.88
2022-10-11T06:08:59.949Z,101064.28
2022-10-11T06:12:03.496Z,101072.50
2022-10-11T06:15:06.515Z,101070.44
2022-10-11T06:18:09.324Z,101068.03
2022-10-11T06:21:13.102Z,101078.06
2022-10-11T06:24:17.178Z,101082.88
2022-10-11T06:27:19.607Z,101082.19
2022-10-11T06:30:22.616Z,101083.69
2022-10-11T06:33:25.289Z,101079.12
2022-10-11T06:36:28.684Z,101081.88
2022-10-11T06:39:31.121Z,101084.75
2022-10-11T06:42:33.815Z,101079.03
2022-10-11T06:45:36.228Z,101078.72
2022-10-11T06:48:43.526Z,101082.56
2022-10-11T06:51:46.037Z,101084.72
2022-10-11T06:54:48.764Z,101079.00
2022-10-11T06:57:51.164Z,101083.00
2022-10-11T07:00:53.966Z,101093.88
2022-10-11T07:03:58.781Z,101091.47
2022-10-11T07:07:01.536Z,101091.75
2022-10-11T07:10:04.301Z,101091.25
2022-10-11T07:13:07.228Z,101101.78
2022-10-11T07:16:12.122Z,101096.22
2022-10-11T07:19:14.853Z,101102.09
2022-10-11T07:22:17.665Z,101101.78
2022-10-11T07:25:20.437Z,101100.75
2022-10-11T07:28:23.434Z,101090.72
2022-10-11T07:31:26.967Z,101098.16
2022-10-11T07:34:29.521Z,101086.94
2022-10-11T07:37:33.990Z,101093.72
2022-10-11T07:40:42.820Z,101098.63
2022-10-11T07:43:47.844Z,101097.63
2022-10-11T07:46:50.276Z,101099.41
2022-10-11T07:49:53.068Z,101101.28
2022-10-11T07:52:55.517Z,101110.44
2022-10-11T07:56:02.466Z,101103.47
2022-10-11T07:59:05.383Z,101107.84
2022-10-11T08:02:11.841Z,101105.94
2022-10-11T08:05:14.663Z,101108.56
2022-10-11T08:08:17.067Z,101105.00
2022-10-11T08:11:26.471Z,101112.66
2022-10-11T08:14:28.985Z,101108.03
2022-10-11T08:17:31.698Z,101112.03
2022-10-11T08:20:34.552Z,101118.78
2022-10-11T08:23:37.609Z,101116.53
2022-10-11T08:26:40.851Z,101106.41
2022-10-11T08:29:43.601Z,101112.84
2022-10-11T08:32:46.049Z,101117.38
2022-10-11T08:35:49.536Z,101110.28
2022-10-11T08:38:52.367Z,101115.53
2022-10-11T08:41:57.495Z,101117.03
2022-10-11T08:45:10.901Z,101107.25
2022-10-11T08:48:16.632Z,101110.63
2022-10-11T08:51:25.683Z,101110.53
2022-10-11T08:54:44.809Z,101104.47
2022-10-11T08:57:53.814Z,101106.94
2022-10-11T09:00:56.971Z,101098.09
2022-10-11T09:04:00.188Z,101096.62
2022-10-11T09:07:25.735Z,101106.25
2022-10-11T09:10:57.225Z,101102.00
2022-10-11T09:14:40.246Z,101098.28
2022-10-11T09:18:04.209Z,101103.72
2022-10-11T09:21:16.319Z,101105.31
2022-10-11T09:24:27.582Z,101107.97
2022-10-11T09:28:01.946Z,101118.25
2022-10-11T09:31:09.903Z,101116.69
2022-10-11T09:34:14.887Z,101109.56
2022-10-11T09:37:27.178Z,101115.34
2022-10-11T09:40:39.202Z,101114.19
2022-10-11T09:43:46.193Z,101108.34
2022-10-11T09:46:49.700Z,101110.88
2022-10-11T09:50:01.684Z,101109.81
2022-10-11T09:53:05.110Z,101112.69
2022-10-11T09:56:08.139Z,101108.25
2022-10-11T09:59:34.122Z,101111.37
2022-10-11T10:02:43.371Z,101111.72
2022-10-11T10:05:46.224Z,101112.13
2022-10-11T10:08:50.419Z,101117.03
2022-10-11T10:11:57.005Z,101110.22
2022-10-11T10:15:14.004Z,101110.50
2022-10-11T10:18:35.337Z,101105.41
2022-10-11T10:21:45.678Z,101100.16
2022-10-11T10:24:51.470Z,101089.19
2022-10-11T10:27:59.452Z,101084.37
2022-10-11T10:31:02.382Z,101090.75
2022-10-11T10:34:15.952Z,101088.22
2022-10-11T10:37:43.189Z,101093.03
2022-10-11T10:40:50.271Z,101081.28
2022-10-11T10:43:57.395Z,101087.41
2022-10-11T10:47:06.543Z,101082.81
2022-10-11T10:50:18.857Z,101085.38
2022-10-11T10:53:25.589Z,101079.16
2022-10-11T10:56:37.792Z,101072.84
2022-10-11T11:00:13.155Z,101078.00
2022-10-11T11:03:30.984Z,101069.00
2022-10-11T11:07:08.842Z,101067.31
2022-10-11T11:10:23.141Z,101070.31
2022-10-11T11:13:43.359Z,101068.84
2022-10-11T11:16:50.475Z,101067.19
2022-10-11T11:20:14.335Z,101074.13
2022-10-11T11:23:36.191Z,101070.63
2022-10-11T11:27:16.785Z,101064.22
2022-10-11T11:30:44.981Z,101062.41
2022-10-11T11:34:01.082Z,101056.84
2022-10-11T11:37:09.631Z,101057.37
2022-10-11T11:40:29.755Z,101058.97
2022-10-11T11:43:38.190Z,101060.75
2022-10-11T11:46:44.609Z,101054.91
2022-10-11T11:50:07.553Z,101058.69
2022-10-11T11:53:25.421Z,101053.47
2022-10-11T11:57:05.641Z,101053.97
2022-10-11T12:00:20.052Z,101049.66
2022-10-11T12:03:30.364Z,101053.13
2022-10-11T12:06:37.939Z,101045.97
2022-10-11T12:09:50.336Z,101048.56
2022-10-11T12:13:15.339Z,101044.03
2022-10-11T12:16:19.386Z,101040.34
2022-10-11T12:19:22.576Z,101044.66
2022-10-11T12:22:28.413Z,101037.06
2022-10-11T12:25:38.455Z,101038.88
2022-10-11T12:28:41.140Z,101040.41
2022-10-11T12:31:46.324Z,101034.38
2022-10-11T12:34:49.224Z,101029.59
2022-10-11T12:37:52.525Z,101025.03
2022-10-11T12:41:19.637Z,101026.47
2022-10-11T12:44:26.907Z,101023.72
2022-10-11T12:48:07.353Z,101029.00
2022-10-11T12:51:39.198Z,101031.19
2022-10-11T12:55:04.606Z,101022.06
2022-10-11T12:58:30.101Z,101025.25
2022-10-11T13:01:37.333Z,101023.94
2022-10-11T13:04:40.304Z,101020.44
2022-10-11T13:07:43.402Z,101017.34
2022-10-11T13:10:47.694Z,101018.31
2022-10-11T13:14:00.195Z,101025.12
2022-10-11T13:17:02.646Z,101017.59
2022-10-11T13:20:20.310Z,101014.56
2022-10-11T13:23:25.825Z,101025.59
2022-10-11T13:26:30.807Z,101017.09
2022-10-11T13:29:40.254Z,101020.72
2022-10-11T13:32:43.203Z,101019.06
2022-10-11T13:35:45.812Z,101020.75
2022-10-11T13:39:00.601Z,101018.34
2022-10-11T13:42:16.074Z,101012.12
2022-10-11T13:45:24.561Z,101017.44
2022-10-11T13:48:31.678Z,101016.75
2022-10-11T13:51:38.104Z,101008.88
2022-10-11T13:55:05.984Z,101018.81
2022-10-11T13:58:36.164Z,101020.66
2022-10-11T14:01:43.990Z,101018.81
2022-10-11T14:04:48.576Z,101023.00
2022-10-11T14:07:51.432Z,101023.13
2022-10-11T14:10:57.772Z,101016.94
2022-10-11T14:14:01.328Z,101017.22
2022-10-11T14:17:10.061Z,101023.16
2022-10-11T14:20:22.235Z,101020.06
2022-10-11T14:23:25.117Z,101021.75
2022-10-11T14:26:33.468Z,101019.63
2022-10-11T14:29:41.350Z,101024.16
2022-10-11T14:32:44.080Z,101023.44
2022-10-11T14:35:46.775Z,101028.97
2022-10-11T14:38:51.013Z,101023.94
2022-10-11T14:41:54.440Z,101026.69
2022-10-11T14:44:56.867Z,101022.22
2022-10-11T14:47:59.667Z,101020.03
2022-10-11T14:51:04.759Z,101021.91
2022-10-11T14:54:08.304Z,101017.72
2022-10-11T14:57:13.208Z,101020.00
2022-10-11T15:00:22.473Z,101017.19
2022-10-11T15:03:24.881Z,101021.66
2022-10-11T15:06:32.545Z,101018.41
2022-10-11T15:09:35.024Z,101023.69
2022-10-11T15:12:37.892Z,101019.13
2022-10-11T15:15:41.611Z,101017.66
2022-10-11T15:18:44.942Z,101015.94
2022-10-11T15:21:47.835Z,101022.84
2022-10-11T15:24:51.824Z,101024.47
2022-10-11T15:27:54.481Z,101029.53
2022-10-11T15:31:00.679Z,101036.72
2022-10-11T15:34:03.531Z,101031.06
2022-10-11T15:37:06.245Z,101038.16
2022-10-11T15:40:20.269Z,101037.09
2022-10-11T15:43:25.058Z,101042.69
2022-10-11T15:46:27.778Z,101043.72
2022-10-11T15:49:31.254Z,101050.22
2022-10-11T15:52:35.725Z,101048.62
2022-10-11T15:55:44.601Z,101047.75
2022-10-11T15:58:47.030Z,101052.84
2022-10-11T16:01:49.863Z,101059.84
2022-10-11T16:04:53.274Z,101054.44
2022-10-11T16:07:55.951Z,101057.94
2022-10-11T16:10:59.600Z,101062.94
2022-10-11T16:14:02.059Z,101065.31
2022-10-11T16:17:05.598Z,101059.91
2022-10-11T16:20:08.581Z,101062.16
2022-10-11T16:23:12.520Z,101074.13
2022-10-11T16:26:16.505Z,101073.09
2022-10-11T16:29:19.306Z,101072.06
2022-10-11T16:32:22.881Z,101078.13
2022-10-11T16:35:30.176Z,101072.78
2022-10-11T16:38:35.396Z,101081.53
2022-10-11T16:41:38.260Z,101084.22
2022-10-11T16:44:40.905Z,101087.47
2022-10-11T16:47:43.820Z,101093.38
2022-10-11T16:50:46.360Z,101095.00
2022-10-11T16:53:49.090Z,101096.53
2022-10-11T16:56:51.686Z,101100.34
2022-10-11T16:59:54.804Z,101102.44
2022-10-11T17:02:57.268Z,101101.19
2022-10-11T17:06:18.684Z,101103.28
2022-10-11T17:09:21.332Z,101110.38
2022-10-11T17:12:24.886Z,101119.56
2022-10-11T17:15:29.705Z,101116.88
2022-10-11T17:18:32.723Z,101121.19
2022-10-11T17:21:35.282Z,101124.66
2022-10-11T17:24:38.351Z,101128.19
2022-10-11T17:27:40.825Z,101133.03
2022-10-11T17:30:54.570Z,101125.81
2022-10-11T17:34:01.163Z,101129.81
2022-10-11T17:37:03.950Z,101131.06
2022-10-11T17:40:07.637Z,101135.84
2022-10-11T17:43:10.815Z,101138.47
2022-10-11T17:46:15.765Z,101132.63
2022-10-11T17:49:19.113Z,101143.94
2022-10-11T17:52:21.630Z,101142.56
2022-10-11T17:55:24.953Z,101148.91
2022-10-11T17:58:27.598Z,101142.91
2022-10-11T18:01:30.418Z,101141.06
2022-10-11T18:04:33.356Z,101139.28
2022-10-11T18:07:35.887Z,101145.44
2022-10-11T18:10:38.785Z,101144.34
2022-10-11T18:13:45.941Z,101149.03
2022-10-11T18:16:49.010Z,101142.16
2022-10-11T18:19:51.576Z,101144.00
2022-10-11T18:22:54.417Z,101154.28
2022-10-11T18:25:56.883Z,101149.91
2022-10-11T18:29:00.199Z,101153.97
2022-10-11T18:32:02.709Z,101151.59
2022-10-11T18:35:06.081Z,101150.81
2022-10-11T18:38:10.373Z,101152.09
2022-10-11T18:41:15.637Z,101149.75
2022-10-11T18:44:18.213Z,101156.28
2022-10-11T18:47:21.703Z,101148.06
2022-10-11T18:50:24.134Z,101152.84
2022-10-11T18:53:26.857Z,101151.44
2022-10-11T18:56:31.201Z,101154.38
2022-10-11T18:59:34.769Z,101152.84
2022-10-11T19:02:37.207Z,101147.12
2022-10-11T19:05:40.133Z,101147.44
2022-10-11T19:08:44.126Z,101146.97
2022-10-11T19:11:47.420Z,101143.81
2022-10-11T19:14:49.902Z,101151.72
2022-10-11T19:17:52.673Z,101148.03
2022-10-11T19:20:55.257Z,101157.41
2022-10-11T19:23:58.188Z,101151.69
2022-10-11T19:27:03.024Z,101151.00
2022-10-11T19:30:06.506Z,101157.03
2022-10-11T19:33:11.513Z,101162.44
2022-10-11T19:36:14.469Z,101162.44
2022-10-11T19:39:21.164Z,101156.41
2022-10-11T19:42:23.932Z,101169.34
2022-10-11T19:45:26.364Z,101164.81
2022-10-11T19:48:31.579Z,101167.44
2022-10-11T19:51:35.148Z,101164.06
2022-10-11T19:54:37.911Z,101171.75
2022-10-11T19:57:40.418Z,101169.13
2022-10-11T20:00:43.484Z,101167.44
2022-10-11T20:03:56.590Z,101169.63
2022-10-11T20:06:59.011Z,101175.16
2022-10-11T20:10:01.776Z,101173.84
2022-10-11T20:13:04.262Z,101178.56
2022-10-11T20:16:10.348Z,101178.06
2022-10-11T20:19:12.991Z,101186.44
2022-10-11T20:22:15.896Z,101185.22
2022-10-11T20:25:21.851Z,101182.84
2022-10-11T20:28:26.011Z,101180.91
2022-10-11T20:31:31.338Z,101181.44
2022-10-11T20:34:34.075Z,101185.53
2022-10-11T20:37:37.018Z,101184.31
2022-10-11T20:40:40.774Z,101185.47
2022-10-11T20:43:44.621Z,101194.06
2022-10-11T20:46:47.363Z,101194.88
2022-10-11T20:49:49.897Z,101191.06
2022-10-11T20:52:52.642Z,101203.31
2022-10-11T20:55:55.780Z,101196.84
2022-10-11T20:58:58.774Z,101194.69
2022-10-11T21:02:01.655Z,101197.59
2022-10-11T21:05:05.839Z,101191.78
2022-10-11T21:08:09.686Z,101202.38
2022-10-11T21:11:12.456Z,101205.12
2022-10-11T21:14:15.214Z,101196.66
2022-10-11T21:17:18.221Z,101198.69
2022-10-11T21:20:20.712Z,101195.28
2022-10-11T21:23:23.465Z,101186.94
2022-10-11T21:26:27.449Z,101192.25
2022-10-11T21:29:30.630Z,101196.78
2022-10-11T21:32:33.241Z,101195.03
2022-10-11T21:35:38.679Z,101204.16
2022-10-11T21:38:41.506Z,101200.78
2022-10-11T21:41:44.242Z,101201.06
2022-10-11T21:44:46.688Z,101200.28
2022-10-11T21:47:51.694Z,101202.09
2022-10-11T21:50:55.013Z,101195.66
2022-10-11T21:54:00.389Z,101201.09
2022-10-11T21:57:02.988Z,101193.44
2022-10-11T22:00:07.321Z,101192.81
2022-10-11T22:03:15.607Z,101199.91
2022-10-11T22:06:18.667Z,101198.31
2022-10-11T22:09:21.264Z,101200.94
2022-10-11T22:12:24.082Z,101199.41
2022-10-11T22:15:26.554Z,101193.53
2022-10-11T22:18:33.301Z,101201.50
2022-10-11T22:21:39.095Z,101202.38
2022-10-11T22:24:44.070Z,101196.47
2022-10-11T22:27:46.721Z,101197.59
2022-10-11T22:30:49.565Z,101193.41
2022-10-11T22:33:55.979Z,101196.97
2022-10-11T22:36:58.929Z,101198.63
2022-10-11T22:40:01.420Z,101198.47
2022-10-11T22:43:04.350Z,101194.16
2022-10-11T22:46:08.158Z,101200.41
2022-10-11T22:49:10.828Z,101197.97
2022-10-11T22:52:13.254Z,101198.91
2022-10-11T22:55:19.910Z,101199.81
2022-10-11T22:58:23.146Z,101194.69
2022-10-11T23:01:25.961Z,101194.00
2022-10-11T23:04:28.572Z,101201.88
2022-10-11T23:07:31.328Z,101208.84
2022-10-11T23:10:34.534Z,101206.22
2022-10-11T23:13:37.298Z,101202.75
2022-10-11T23:16:39.705Z,101207.03
2022-10-11T23:19:42.513Z,101212.25
2022-10-11T23:22:44.933Z,101209.50
2022-10-11T23:25:47.628Z,101217.38
2022-10-11T23:28:54.129Z,101213.16
2022-10-11T23:31:56.986Z,101216.72
2022-10-11T23:34:59.410Z,101219.44
2022-10-11T23:38:02.131Z,101221.97
2022-10-11T23:41:04.709Z,101230.03
2022-10-11T23:44:07.492Z,101225.84
2022-10-11T23:47:09.955Z,101223.34
2022-10-11T23:50:12.932Z,101227.59
2022-10-11T23:53:15.578Z,101232.09
2022-10-11T23:56:18.392Z,101232.03
2022-10-11T23:59:21.316Z,101230.81
